Time;durP1;ratioP1;P1;durP2;ratioP2;P2;SDS_P1;SDS_P2;PMS_P1;PMS_P2;Temp;Humidity;BMP_temperature;BMP_pressure;BME280_temperature;BME280_humidity;BME280_pressure;Samples;Min_cycle;Max_cycle;Signal;HPM_P1;HPM_P2
2023/07/05 00:00:13;;;;;;;;;5.00;5.00;;;;;;;;5074168;28;45345;-72
2023/07/05 00:02:38;;;;;;;;;4.50;2.75;;;;;;;;5075699;27;45391;-72
2023/07/05 00:05:03;;;;;;;;;4.50;4.50;;;;;;;;5076166;28;45443;-72
2023/07/05 00:07:29;;;;;;;;;3.25;3.25;;;;;;;;5075950;28;46323;-74
2023/07/05 00:09:54;;;;;;;;;7.25;6.25;;;;;;;;5074899;27;45241;-73
2023/07/05 00:12:20;;;;;;;;;6.00;5.00;;;;;;;;5074053;28;45575;-72
2023/07/05 00:14:45;;;;;;;;;6.50;6.50;;;;;;;;5073153;28;45415;-73
2023/07/05 00:17:10;;;;;;;;;7.00;6.25;;;;;;;;5072816;28;46327;-72
2023/07/05 00:19:35;;;;;;;;;5.50;5.00;;;;;;;;5074609;27;45311;-71
2023/07/05 00:22:01;;;;;;;;;11.75;7.50;;;;;;;;5063533;28;45486;-73
2023/07/05 00:24:26;;;;;;;;;5.25;5.25;;;;;;;;5075883;28;45351;-71
2023/07/05 00:26:51;;;;;;;;;6.00;4.75;;;;;;;;5076135;28;46232;-74
2023/07/05 00:29:16;;;;;;;;;7.25;7.25;;;;;;;;5058175;28;45322;-72
2023/07/05 00:31:41;;;;;;;;;7.00;6.50;;;;;;;;5085863;27;45311;-71
2023/07/05 00:34:07;;;;;;;;;11.50;7.75;;;;;;;;5072371;28;45299;-72
2023/07/05 00:36:32;;;;;;;;;6.50;6.00;;;;;;;;5075730;27;45448;-72
2023/07/05 00:38:57;;;;;;;;;8.00;7.00;;;;;;;;5075819;28;45412;-71
2023/07/05 00:41:22;;;;;;;;;6.00;6.00;;;;;;;;5075799;27;45407;-73
2023/07/05 00:43:48;;;;;;;;;4.75;4.75;;;;;;;;5075799;28;45561;-72
2023/07/05 00:46:21;;;;;;;;;8.75;8.75;;;;;;;;5075387;28;46350;-72
2023/07/05 00:48:55;;;;;;;;;6.25;5.00;;;;;;;;5077774;27;45484;-72
2023/07/05 00:51:20;;;;;;;;;5.75;5.75;;;;;;;;5091589;28;28337;-72
2023/07/05 00:53:46;;;;;;;;;9.25;7.25;;;;;;;;5079565;28;45257;-72
2023/07/05 00:56:15;;;;;;;;;3.75;2.75;;;;;;;;5076195;28;46362;-72
2023/07/05 00:58:41;;;;;;;;;10.00;6.75;;;;;;;;5083052;28;45463;-72
2023/07/05 01:01:07;;;;;;;;;7.25;6.25;;;;;;;;5058091;28;45389;-72
2023/07/05 01:03:32;;;;;;;;;7.00;7.00;;;;;;;;5085293;28;45457;-74
2023/07/05 01:05:59;;;;;;;;;5.75;5.75;;;;;;;;5079283;27;45492;-73
2023/07/05 01:08:24;;;;;;;;;8.25;6.00;;;;;;;;5057004;28;45455;-74
2023/07/05 01:10:55;;;;;;;;;5.50;5.00;;;;;;;;5075227;28;45511;-74
2023/07/05 01:13:24;;;;;;;;;7.50;6.25;;;;;;;;5076355;28;45505;-73
2023/07/05 01:16:01;;;;;;;;;4.00;2.00;;;;;;;;5074999;28;47842;-75
2023/07/05 01:18:29;;;;;;;;;5.25;4.00;;;;;;;;5074846;28;45368;-74
2023/07/05 01:21:00;;;;;;;;;12.25;6.00;;;;;;;;5075135;28;45474;-74
2023/07/05 01:23:44;;;;;;;;;9.00;7.75;;;;;;;;5074946;28;45284;-74
2023/07/05 01:26:44;;;;;;;;;5.00;5.00;;;;;;;;5075025;28;46479;-74
2023/07/05 01:29:22;;;;;;;;;8.00;6.00;;;;;;;;4973230;28;45438;-74
2023/07/05 01:31:50;;;;;;;;;9.00;5.75;;;;;;;;4956984;28;45417;-73
2023/07/05 01:34:15;;;;;;;;;5.00;3.50;;;;;;;;4973180;28;45498;-74
2023/07/05 01:36:41;;;;;;;;;6.50;5.25;;;;;;;;4973025;28;45603;-74
2023/07/05 01:39:06;;;;;;;;;3.25;3.25;;;;;;;;4981091;28;45385;-72
2023/07/05 01:41:31;;;;;;;;;4.50;3.75;;;;;;;;4988632;28;28533;-74
2023/07/05 01:43:57;;;;;;;;;4.75;3.75;;;;;;;;4988944;28;28535;-74
2023/07/05 01:46:23;;;;;;;;;4.00;4.00;;;;;;;;4989120;28;45344;-74
2023/07/05 01:49:03;;;;;;;;;5.50;4.25;;;;;;;;4976327;28;45279;-74
2023/07/05 01:51:28;;;;;;;;;7.50;5.25;;;;;;;;4978690;28;45443;-74
2023/07/05 01:53:54;;;;;;;;;6.00;5.00;;;;;;;;4986563;28;45533;-74
2023/07/05 01:56:21;;;;;;;;;4.75;3.75;;;;;;;;4989441;28;41877;-74
2023/07/05 01:58:49;;;;;;;;;5.00;4.00;;;;;;;;4990882;28;30890;-74
2023/07/05 02:01:15;;;;;;;;;2.00;2.00;;;;;;;;4990756;28;32389;-73
2023/07/05 02:03:41;;;;;;;;;3.00;3.00;;;;;;;;5063691;28;34290;-74
2023/07/05 02:06:08;;;;;;;;;2.00;2.00;;;;;;;;5075616;28;30064;-74
2023/07/05 02:08:36;;;;;;;;;2.50;2.50;;;;;;;;5093703;28;29048;-74
2023/07/05 02:11:02;;;;;;;;;3.75;2.00;;;;;;;;5093267;28;28977;-74
2023/07/05 02:13:28;;;;;;;;;2.50;1.00;;;;;;;;5083055;28;45197;-74
2023/07/05 02:15:53;;;;;;;;;2.00;1.50;;;;;;;;5077928;28;46163;-74
2023/07/05 02:18:18;;;;;;;;;1.00;1.00;;;;;;;;5059727;28;45384;-74
2023/07/05 02:20:43;;;;;;;;;1.00;1.00;;;;;;;;5059584;27;45383;-74
2023/07/05 02:23:09;;;;;;;;;2.25;1.00;;;;;;;;5078234;28;45338;-74
2023/07/05 02:25:35;;;;;;;;;2.25;1.50;;;;;;;;5077517;28;46291;-74
2023/07/05 02:28:00;;;;;;;;;1.00;1.00;;;;;;;;5078020;28;45391;-74
2023/07/05 02:30:26;;;;;;;;;2.75;1.75;;;;;;;;5078096;28;45429;-75
2023/07/05 02:32:51;;;;;;;;;1.75;1.50;;;;;;;;5059889;28;45451;-75
2023/07/05 02:35:17;;;;;;;;;3.00;3.00;;;;;;;;5062257;28;47154;-74
2023/07/05 02:37:42;;;;;;;;;3.25;2.25;;;;;;;;5077702;28;45356;-75
2023/07/05 02:40:07;;;;;;;;;1.50;1.50;;;;;;;;5077683;28;45501;-74
2023/07/05 02:42:32;;;;;;;;;1.50;1.50;;;;;;;;5077448;28;45474;-74
2023/07/05 02:44:58;;;;;;;;;1.75;1.75;;;;;;;;5077688;28;45485;-74
2023/07/05 02:47:23;;;;;;;;;3.00;3.00;;;;;;;;5077532;28;45426;-74
2023/07/05 02:49:48;;;;;;;;;4.25;3.25;;;;;;;;5078021;27;45434;-75
2023/07/05 02:52:13;;;;;;;;;2.50;2.50;;;;;;;;5077950;27;45457;-74
2023/07/05 02:54:38;;;;;;;;;2.00;2.00;;;;;;;;5085384;28;46196;-74
2023/07/05 02:57:04;;;;;;;;;2.00;2.00;;;;;;;;5093036;28;28442;-75
2023/07/05 02:59:29;;;;;;;;;3.00;1.00;;;;;;;;5093264;28;28512;-75
2023/07/05 03:01:54;;;;;;;;;3.00;1.00;;;;;;;;5093630;28;28340;-76
2023/07/05 03:04:20;;;;;;;;;1.25;1.25;;;;;;;;5093303;27;28364;-72
2023/07/05 03:06:45;;;;;;;;;2.25;1.00;;;;;;;;5093456;28;28433;-75
2023/07/05 03:09:11;;;;;;;;;1.75;1.75;;;;;;;;5093226;28;28426;-75
2023/07/05 03:11:36;;;;;;;;;3.25;1.75;;;;;;;;5093287;28;28407;-75
2023/07/05 03:14:01;;;;;;;;;2.00;2.00;;;;;;;;5072886;28;45560;-75
2023/07/05 03:16:26;;;;;;;;;1.00;1.00;;;;;;;;5079804;28;45616;-75
2023/07/05 03:18:51;;;;;;;;;2.00;2.00;;;;;;;;5088212;27;44794;-74
2023/07/05 03:21:17;;;;;;;;;1.75;1.75;;;;;;;;5092853;27;28350;-75
2023/07/05 03:23:42;;;;;;;;;2.00;1.25;;;;;;;;5093188;28;29454;-75
2023/07/05 03:26:08;;;;;;;;;2.00;1.00;;;;;;;;5093369;28;28366;-75
2023/07/05 03:28:35;;;;;;;;;3.75;2.50;;;;;;;;5094113;27;28442;-75
2023/07/05 03:31:08;;;;;;;;;1.00;1.00;;;;;;;;5076582;28;28432;-75
2023/07/05 03:33:34;;;;;;;;;1.50;1.50;;;;;;;;5094383;28;29235;-75
2023/07/05 03:36:03;;;;;;;;;2.50;0.00;;;;;;;;5095000;28;28415;-75
2023/07/05 03:38:29;;;;;;;;;0.00;0.00;;;;;;;;5095152;28;28410;-75
2023/07/05 03:40:57;;;;;;;;;1.25;1.25;;;;;;;;5094523;27;28537;-75
2023/07/05 03:43:24;;;;;;;;;4.25;0.25;;;;;;;;5092771;28;28516;-75
2023/07/05 03:45:50;;;;;;;;;1.00;1.00;;;;;;;;5092795;28;28442;-72
2023/07/05 03:48:15;;;;;;;;;2.75;2.00;;;;;;;;5092752;28;28469;-75
2023/07/05 03:50:40;;;;;;;;;1.00;1.00;;;;;;;;5092705;28;28533;-76
2023/07/05 03:53:05;;;;;;;;;0.00;0.00;;;;;;;;5092584;27;29131;-75
2023/07/05 03:55:34;;;;;;;;;2.00;0.75;;;;;;;;5092607;28;28394;-76
2023/07/05 03:58:02;;;;;;;;;1.00;1.00;;;;;;;;5074501;28;28364;-76
2023/07/05 04:00:27;;;;;;;;;3.00;1.25;;;;;;;;5074650;28;28522;-76
2023/07/05 04:02:53;;;;;;;;;2.00;1.00;;;;;;;;5092030;28;28443;-75
2023/07/05 04:05:18;;;;;;;;;0.75;0.75;;;;;;;;5070702;28;45229;-73
2023/07/05 04:07:43;;;;;;;;;1.00;1.00;;;;;;;;5075442;28;45434;-73
2023/07/05 04:10:09;;;;;;;;;2.25;1.00;;;;;;;;5076490;27;45388;-73
2023/07/05 04:12:34;;;;;;;;;0.75;0.75;;;;;;;;5074056;28;45789;-75
2023/07/05 04:14:59;;;;;;;;;1.00;1.00;;;;;;;;5076227;28;45396;-76
2023/07/05 04:17:28;;;;;;;;;1.00;1.00;;;;;;;;5076275;28;45421;-76
2023/07/05 04:19:53;;;;;;;;;1.75;0.50;;;;;;;;5057908;28;45562;-76
2023/07/05 04:22:18;;;;;;;;;1.00;1.00;;;;;;;;5057144;28;47224;-73
2023/07/05 04:24:43;;;;;;;;;1.25;1.25;;;;;;;;5076038;28;45478;-73
2023/07/05 04:27:08;;;;;;;;;1.25;1.25;;;;;;;;5076186;28;45432;-73
2023/07/05 04:29:34;;;;;;;;;2.00;2.00;;;;;;;;5057855;27;45550;-74
2023/07/05 04:31:59;;;;;;;;;1.00;1.00;;;;;;;;5057583;28;45507;-74
2023/07/05 04:34:24;;;;;;;;;1.00;1.00;;;;;;;;5076092;28;45451;-74
2023/07/05 04:36:49;;;;;;;;;1.00;1.00;;;;;;;;5086403;28;45338;-74
2023/07/05 04:39:14;;;;;;;;;1.25;1.25;;;;;;;;5087766;28;45264;-74
2023/07/05 04:41:40;;;;;;;;;1.00;1.00;;;;;;;;5075975;28;45918;-73
2023/07/05 04:44:06;;;;;;;;;1.00;1.00;;;;;;;;5075935;28;45349;-73
2023/07/05 04:46:31;;;;;;;;;1.00;1.00;;;;;;;;5076024;28;45430;-73
2023/07/05 04:48:56;;;;;;;;;0.75;0.75;;;;;;;;5075717;28;45621;-73
2023/07/05 04:51:21;;;;;;;;;2.00;0.00;;;;;;;;5075479;28;45417;-73
2023/07/05 04:53:47;;;;;;;;;1.00;1.00;;;;;;;;5075767;28;45375;-73
2023/07/05 04:56:13;;;;;;;;;2.25;2.00;;;;;;;;5075751;28;45345;-73
2023/07/05 04:58:38;;;;;;;;;2.75;1.25;;;;;;;;5075790;28;45331;-73
2023/07/05 05:01:04;;;;;;;;;1.00;1.00;;;;;;;;5075551;28;46856;-73
2023/07/05 05:03:29;;;;;;;;;3.75;2.00;;;;;;;;5075541;27;45306;-73
2023/07/05 05:05:54;;;;;;;;;2.25;1.25;;;;;;;;5075402;28;45816;-74
2023/07/05 05:08:20;;;;;;;;;3.00;2.00;;;;;;;;5075470;28;45624;-73
2023/07/05 05:10:49;;;;;;;;;1.50;1.00;;;;;;;;5075396;27;45366;-73
2023/07/05 05:13:14;;;;;;;;;3.00;3.00;;;;;;;;5075334;28;45494;-73
2023/07/05 05:15:40;;;;;;;;;1.00;1.00;;;;;;;;5075533;28;45383;-73
2023/07/05 05:18:06;;;;;;;;;2.00;2.00;;;;;;;;5075589;28;45258;-73
2023/07/05 05:20:31;;;;;;;;;1.75;1.75;;;;;;;;5074560;28;45426;-74
2023/07/05 05:22:57;;;;;;;;;2.25;2.25;;;;;;;;5075376;28;45374;-73
2023/07/05 05:25:22;;;;;;;;;2.00;2.00;;;;;;;;5075241;28;45410;-74
2023/07/05 05:27:47;;;;;;;;;3.00;1.50;;;;;;;;5075248;28;45324;-73
2023/07/05 05:30:12;;;;;;;;;2.50;2.50;;;;;;;;5074937;28;45356;-73
2023/07/05 05:32:38;;;;;;;;;2.00;2.00;;;;;;;;5070291;28;45233;-73
2023/07/05 05:35:03;;;;;;;;;2.00;2.00;;;;;;;;5091043;28;28401;-73
2023/07/05 05:37:28;;;;;;;;;2.75;1.75;;;;;;;;5062331;28;45934;-74
2023/07/05 05:39:53;;;;;;;;;3.25;2.25;;;;;;;;5090842;28;29086;-73
2023/07/05 05:42:19;;;;;;;;;1.00;1.00;;;;;;;;5090933;28;28460;-74
2023/07/05 05:44:44;;;;;;;;;2.00;2.00;;;;;;;;5088003;28;44696;-73
2023/07/05 05:47:09;;;;;;;;;2.00;2.00;;;;;;;;5085967;28;45361;-74
2023/07/05 05:49:34;;;;;;;;;4.00;3.00;;;;;;;;5072477;28;28570;-74
2023/07/05 05:51:59;;;;;;;;;2.00;2.00;;;;;;;;5072407;28;28618;-73
2023/07/05 05:54:25;;;;;;;;;1.75;1.75;;;;;;;;5091170;28;28520;-74
2023/07/05 05:56:51;;;;;;;;;2.00;2.00;;;;;;;;5072551;28;28562;-74
2023/07/05 05:59:16;;;;;;;;;2.50;2.50;;;;;;;;5090622;27;28466;-73
2023/07/05 06:01:44;;;;;;;;;2.75;2.00;;;;;;;;5090642;28;28741;-74
2023/07/05 06:04:09;;;;;;;;;1.75;1.75;;;;;;;;5090560;28;28317;-74
2023/07/05 06:06:35;;;;;;;;;2.75;1.25;;;;;;;;5072573;28;28386;-74
2023/07/05 06:09:00;;;;;;;;;2.00;2.00;;;;;;;;5088878;27;28464;-73
2023/07/05 06:11:25;;;;;;;;;1.50;0.75;;;;;;;;5067899;28;45407;-74
2023/07/05 06:13:50;;;;;;;;;2.50;1.75;;;;;;;;4938579;28;2693645;-74
2023/07/05 06:19:26;;;;;;;;;;;;;;;;;;776208;28;153595322;-74
2023/07/05 06:25:10;;;;;;;;;1.00;1.00;;;;;;;;2;164378888;164378888;-74
2023/07/05 06:27:36;;;;;;;;;3.50;2.00;;;;;;;;1575328;28;89640179;-74
2023/07/05 06:30:07;;;;;;;;;4.00;2.00;;;;;;;;2392444;28;42215458;-73
2023/07/05 06:32:32;;;;;;;;;1.00;1.00;;;;;;;;4636095;28;4781697;-74
2023/07/05 06:34:58;;;;;;;;;3.00;1.00;;;;;;;;5093278;28;28977;-73
2023/07/05 06:37:24;;;;;;;;;0.75;0.75;;;;;;;;4473417;27;17000598;-74
2023/07/05 06:42:50;;;;;;;;;;;;;;;;;;677067;28;231287182;-73
2023/07/05 06:49:52;;;;;;;;;2.00;2.00;;;;;;;;349782;28;186544563;-74
2023/07/05 06:58:22;;;;;;;;;1.50;1.50;;;;;;;;1932042;28;219037695;-73
2023/07/05 07:05:40;;;;;;;;;0.50;0.50;;;;;;;;2;204578635;204578635;-73
2023/07/05 07:12:40;;;;;;;;;0.50;0.50;;;;;;;;2;220531149;220531149;-73
2023/07/05 07:15:06;;;;;;;;;2.50;2.50;;;;;;;;1371279;28;68827466;-73
2023/07/05 07:17:31;;;;;;;;;1.00;1.00;;;;;;;;5072900;28;28426;-74
2023/07/05 07:19:56;;;;;;;;;1.00;1.00;;;;;;;;5072782;28;28428;-74
2023/07/05 07:22:23;;;;;;;;;1.75;1.25;;;;;;;;5092373;27;28419;-74
2023/07/05 07:24:50;;;;;;;;;1.00;1.00;;;;;;;;5092652;28;28398;-74
2023/07/05 07:27:15;;;;;;;;;2.50;2.00;;;;;;;;5092593;27;29213;-74
2023/07/05 07:29:41;;;;;;;;;1.75;1.75;;;;;;;;5074184;28;29022;-74
2023/07/05 07:32:07;;;;;;;;;1.75;1.75;;;;;;;;5092830;28;29246;-74
2023/07/05 07:34:32;;;;;;;;;1.25;1.25;;;;;;;;5093435;27;29016;-73
2023/07/05 07:36:57;;;;;;;;;4.00;2.50;;;;;;;;5093387;28;29008;-73
2023/07/05 07:39:22;;;;;;;;;1.50;1.50;;;;;;;;5093043;28;28870;-78
2023/07/05 07:41:47;;;;;;;;;2.25;1.75;;;;;;;;5092084;28;30016;-78
2023/07/05 07:44:16;;;;;;;;;1.00;1.00;;;;;;;;5092016;27;30826;-76
2023/07/05 07:46:42;;;;;;;;;1.75;1.75;;;;;;;;5074067;28;28918;-76
2023/07/05 07:49:08;;;;;;;;;1.50;1.50;;;;;;;;5092137;28;28365;-75
2023/07/05 07:51:34;;;;;;;;;1.75;1.75;;;;;;;;5092440;28;30376;-74
2023/07/05 07:53:59;;;;;;;;;0.25;0.25;;;;;;;;5092654;27;28971;-76
2023/07/05 07:56:26;;;;;;;;;1.75;1.75;;;;;;;;5092354;28;28924;-75
2023/07/05 07:58:52;;;;;;;;;2.00;2.00;;;;;;;;5092082;28;29108;-76
2023/07/05 08:01:19;;;;;;;;;2.50;2.00;;;;;;;;5091769;28;29009;-76
2023/07/05 08:03:44;;;;;;;;;1.00;1.00;;;;;;;;5092337;28;28551;-76
2023/07/05 08:06:10;;;;;;;;;2.00;1.00;;;;;;;;5092617;27;28477;-75
2023/07/05 08:08:35;;;;;;;;;1.75;1.75;;;;;;;;5092484;27;28458;-74
2023/07/05 08:11:02;;;;;;;;;2.75;1.75;;;;;;;;5074198;28;30797;-75
2023/07/05 08:13:27;;;;;;;;;2.00;2.00;;;;;;;;5092158;28;28422;-74
2023/07/05 08:15:53;;;;;;;;;2.00;2.00;;;;;;;;5092401;27;28391;-75
2023/07/05 08:18:18;;;;;;;;;1.00;1.00;;;;;;;;5092368;27;28516;-76
2023/07/05 08:20:43;;;;;;;;;1.00;1.00;;;;;;;;5091842;27;29284;-76
2023/07/05 08:23:08;;;;;;;;;1.25;1.25;;;;;;;;5091884;28;28458;-77
2023/07/05 08:25:34;;;;;;;;;3.00;2.00;;;;;;;;5092252;27;28423;-76
2023/07/05 08:27:59;;;;;;;;;1.00;1.00;;;;;;;;5091903;28;28585;-77
2023/07/05 08:30:26;;;;;;;;;3.50;1.00;;;;;;;;5092299;27;28824;-78
2023/07/05 08:32:51;;;;;;;;;1.75;0.25;;;;;;;;5091915;27;28502;-77
2023/07/05 08:35:17;;;;;;;;;1.00;1.00;;;;;;;;5092130;27;28430;-77
2023/07/05 08:37:48;;;;;;;;;1.50;1.50;;;;;;;;5092083;28;28493;-77
2023/07/05 08:40:31;;;;;;;;;;;;;;;;;;2811637;27;82991063;-77
2023/07/05 08:44:36;;;;;;;;;0.00;0.00;;;;;;;;346957;28;187877624;-76
2023/07/05 08:47:07;;;;;;;;;0.75;0.75;;;;;;;;5041311;28;507296;-77
2023/07/05 08:52:25;;;;;;;;;;;;;;;;;;2610111;28;233174062;-75
2023/07/05 09:00:50;;;;;;;;;3.00;3.00;;;;;;;;170252;28;246731847;-77
2023/07/05 09:08:03;;;;;;;;;0.50;0.50;;;;;;;;2;215102375;215102375;-76
2023/07/05 09:14:11;;;;;;;;;1.00;1.00;;;;;;;;2;238907474;238907474;-71
2023/07/05 09:21:03;;;;;;;;;2.50;2.50;;;;;;;;2;199246041;199246041;-71
2023/07/05 09:29:18;;;;;;;;;4.00;1.00;;;;;;;;2;233149329;233149329;-71
2023/07/05 09:34:58;;;;;;;;;0.50;0.50;;;;;;;;2;223918017;223918017;-71
2023/07/05 09:38:47;;;;;;;;;0.50;0.50;;;;;;;;2;214053688;214053688;-70
2023/07/05 09:41:40;;;;;;;;;0.00;0.00;;;;;;;;174045;28;143114446;-70
2023/07/05 09:51:12;;;;;;;;;0.50;0.50;;;;;;;;3;133971327;182770994;-71
2023/07/05 09:54:17;;;;;;;;;;;;;;;;;;171680;28;179447913;-71
2023/07/05 09:58:26;;;;;;;;;0.00;0.00;;;;;;;;282236;28;136173891;-71
2023/07/05 10:05:58;;;;;;;;;2.50;2.50;;;;;;;;2053248;28;143093134;-71
2023/07/05 10:13:35;;;;;;;;;0.50;0.50;;;;;;;;2;265049362;265049362;-70
2023/07/05 10:22:44;;;;;;;;;0.00;0.00;;;;;;;;500577;28;232137234;-70
2023/07/05 10:30:52;;;;;;;;;1.00;1.00;;;;;;;;2;257026750;257026750;-71
2023/07/05 10:39:28;;;;;;;;;0.00;0.00;;;;;;;;2;238452364;238452364;-71
2023/07/05 10:47:39;;;;;;;;;1.50;1.50;;;;;;;;2;258507379;258507379;-71
2023/07/05 10:56:20;;;;;;;;;1.00;1.00;;;;;;;;2;241653961;241653961;-71
2023/07/05 11:04:33;;;;;;;;;0.50;0.50;;;;;;;;2;259015173;259015173;-70
2023/07/05 11:13:14;;;;;;;;;0.00;0.00;;;;;;;;2;242509843;242509843;-70
2023/07/05 11:21:34;;;;;;;;;5.00;5.00;;;;;;;;2;257033207;257033207;-70
2023/07/05 11:30:29;;;;;;;;;1.00;1.00;;;;;;;;2;239751521;239751521;-71
2023/07/05 11:38:40;;;;;;;;;4.00;4.00;;;;;;;;2;256868384;256868384;-71
2023/07/05 11:44:35;;;;;;;;;3.50;3.50;;;;;;;;2;240037740;240037740;-70
2023/07/05 11:47:00;;;;;;;;;3.00;3.00;;;;;;;;5074037;28;45410;-71
2023/07/05 11:49:27;;;;;;;;;1.00;1.00;;;;;;;;5058055;27;45409;-71
2023/07/05 11:51:56;;;;;;;;;1.00;1.00;;;;;;;;5075808;28;45493;-71
2023/07/05 11:54:25;;;;;;;;;0.00;0.00;;;;;;;;5076388;28;46407;-71
2023/07/05 11:56:53;;;;;;;;;2.00;0.00;;;;;;;;5054864;27;45373;-70
2023/07/05 11:59:20;;;;;;;;;4.25;4.25;;;;;;;;5074267;27;45456;-70
2023/07/05 12:01:46;;;;;;;;;3.75;2.50;;;;;;;;5078401;27;45506;-71
2023/07/05 12:04:17;;;;;;;;;2.25;2.25;;;;;;;;5072848;27;47209;-70
2023/07/05 12:06:43;;;;;;;;;1.00;1.00;;;;;;;;5086679;27;45467;-71
2023/07/05 12:09:15;;;;;;;;;2.25;1.25;;;;;;;;5087357;27;45447;-73
2023/07/05 12:11:41;;;;;;;;;1.25;1.25;;;;;;;;5091103;27;45356;-71
2023/07/05 12:14:10;;;;;;;;;2.00;2.00;;;;;;;;5087376;27;45406;-71
2023/07/05 12:16:35;;;;;;;;;1.75;1.75;;;;;;;;5069367;28;45377;-71
2023/07/05 12:19:02;;;;;;;;;1.25;1.25;;;;;;;;5087711;27;45321;-71
2023/07/05 12:21:31;;;;;;;;;2.00;2.00;;;;;;;;5080529;27;45474;-70
2023/07/05 12:23:56;;;;;;;;;2.00;2.00;;;;;;;;5092378;27;47029;-71
2023/07/05 12:26:24;;;;;;;;;3.25;1.25;;;;;;;;5076699;27;45454;-71
2023/07/05 12:28:51;;;;;;;;;2.00;2.00;;;;;;;;5084928;27;45491;-72
2023/07/05 12:31:19;;;;;;;;;2.50;1.50;;;;;;;;5063851;28;45367;-70
2023/07/05 12:33:50;;;;;;;;;0.00;0.00;;;;;;;;5080190;27;45573;-72
2023/07/05 12:36:16;;;;;;;;;3.00;2.00;;;;;;;;5082839;27;45427;-72
2023/07/05 12:38:43;;;;;;;;;1.50;1.50;;;;;;;;5064525;28;45457;-73
2023/07/05 12:41:28;;;;;;;;;1.00;1.00;;;;;;;;5087594;27;45533;-72
2023/07/05 12:43:58;;;;;;;;;1.50;1.50;;;;;;;;5078015;27;47095;-74
2023/07/05 12:46:25;;;;;;;;;2.00;2.00;;;;;;;;5077152;27;45399;-73
2023/07/05 12:48:50;;;;;;;;;1.25;1.25;;;;;;;;5074934;27;45438;-73
2023/07/05 12:51:24;;;;;;;;;1.75;1.75;;;;;;;;5083400;27;45474;-72
2023/07/05 12:53:51;;;;;;;;;1.50;1.50;;;;;;;;5080129;27;47217;-70
2023/07/05 12:56:18;;;;;;;;;1.00;0.25;;;;;;;;5090106;27;45573;-72
2023/07/05 12:58:47;;;;;;;;;1.75;1.75;;;;;;;;5075730;27;45476;-72
2023/07/05 13:01:13;;;;;;;;;2.00;1.00;;;;;;;;5086143;27;45590;-71
2023/07/05 13:03:42;;;;;;;;;2.00;1.00;;;;;;;;5075831;27;46224;-72
2023/07/05 13:06:08;;;;;;;;;1.75;1.75;;;;;;;;5065128;27;45424;-72
2023/07/05 13:08:33;;;;;;;;;1.00;1.00;;;;;;;;5087494;27;45470;-76
2023/07/05 13:10:58;;;;;;;;;3.00;3.00;;;;;;;;5075698;28;45434;-72
2023/07/05 13:13:32;;;;;;;;;2.50;2.50;;;;;;;;5059727;28;47156;-72
2023/07/05 13:16:20;;;;;;;;;2.25;1.25;;;;;;;;5084864;28;45446;-75
2023/07/05 13:18:56;;;;;;;;;0.00;0.00;;;;;;;;5000322;28;45702;-75
2023/07/05 13:21:21;;;;;;;;;1.25;1.25;;;;;;;;5002356;28;45508;-74
2023/07/05 13:23:48;;;;;;;;;1.50;0.50;;;;;;;;4994906;28;45632;-74
2023/07/05 13:26:36;;;;;;;;;1.25;1.00;;;;;;;;5004791;28;46042;-73
2023/07/05 13:29:03;;;;;;;;;1.00;1.00;;;;;;;;4995163;28;45471;-75
2023/07/05 13:31:28;;;;;;;;;2.00;1.00;;;;;;;;5001580;28;45527;-73
2023/07/05 13:33:57;;;;;;;;;1.00;1.00;;;;;;;;5012702;28;45206;-74
2023/07/05 13:36:23;;;;;;;;;1.00;1.00;;;;;;;;5010651;28;44862;-74
2023/07/05 13:38:48;;;;;;;;;1.00;1.00;;;;;;;;5009792;28;45209;-72
2023/07/05 13:41:21;;;;;;;;;1.33;1.00;;;;;;;;5011543;28;45297;-73
2023/07/05 13:43:46;;;;;;;;;0.67;0.33;;;;;;;;5001878;28;46852;-71
2023/07/05 13:46:12;;;;;;;;;1.00;1.00;;;;;;;;5012396;28;45420;-71
2023/07/05 13:48:37;;;;;;;;;1.00;1.00;;;;;;;;4990008;28;45434;-71
2023/07/05 13:51:02;;;;;;;;;1.00;1.00;;;;;;;;5012468;28;45441;-71
2023/07/05 13:53:28;;;;;;;;;0.25;0.25;;;;;;;;5005833;28;46663;-69
2023/07/05 13:55:53;;;;;;;;;1.00;1.00;;;;;;;;5057160;27;45400;-70
2023/07/05 13:58:21;;;;;;;;;0.33;0.33;;;;;;;;5091619;27;45441;-69
2023/07/05 14:00:46;;;;;;;;;0.00;0.00;;;;;;;;5084591;27;45548;-70
2023/07/05 14:03:12;;;;;;;;;1.00;0.33;;;;;;;;5080431;27;45446;-69
2023/07/05 14:05:39;;;;;;;;;1.00;1.00;;;;;;;;5100889;27;45288;-70
2023/07/05 14:08:08;;;;;;;;;0.33;0.00;;;;;;;;5096077;27;45562;-68
2023/07/05 14:10:34;;;;;;;;;0.50;0.50;;;;;;;;5110561;27;45253;-70
2023/07/05 14:13:02;;;;;;;;;1.00;1.00;;;;;;;;5100758;27;45465;-70
2023/07/05 14:15:40;;;;;;;;;0.00;0.00;;;;;;;;5074537;27;1067990;-79
2023/07/05 14:18:06;;;;;;;;;0.00;0.00;;;;;;;;5121817;27;44779;-78
2023/07/05 14:20:36;;;;;;;;;0.50;0.00;;;;;;;;5107502;27;44725;-77
2023/07/05 14:23:02;;;;;;;;;0.50;0.50;;;;;;;;5107749;27;45769;-77
2023/07/05 14:25:28;;;;;;;;;1.75;0.50;;;;;;;;5107291;27;44657;-77
2023/07/05 14:27:56;;;;;;;;;1.00;1.00;;;;;;;;5107552;27;45311;-79
2023/07/05 14:30:22;;;;;;;;;0.50;0.50;;;;;;;;5106160;27;45036;-78
2023/07/05 14:32:49;;;;;;;;;0.00;0.00;;;;;;;;5107489;27;45140;-78
2023/07/05 14:35:17;;;;;;;;;0.75;0.50;;;;;;;;5104038;27;44819;-77
2023/07/05 14:37:46;;;;;;;;;1.25;1.25;;;;;;;;5079769;28;45333;-77
2023/07/05 14:40:12;;;;;;;;;0.00;0.00;;;;;;;;5078328;28;45379;-77
2023/07/05 14:42:37;;;;;;;;;2.00;2.00;;;;;;;;5077775;28;47307;-77
2023/07/05 14:45:02;;;;;;;;;1.00;1.00;;;;;;;;5084917;27;45384;-77
2023/07/05 14:47:27;;;;;;;;;1.50;1.50;;;;;;;;5098577;27;45379;-77
2023/07/05 14:49:53;;;;;;;;;2.00;2.00;;;;;;;;5080118;27;45524;-76
2023/07/05 14:52:18;;;;;;;;;0.00;0.00;;;;;;;;5097428;27;47059;-77
2023/07/05 14:54:43;;;;;;;;;1.00;1.00;;;;;;;;5085771;27;45767;-77
2023/07/05 14:57:11;;;;;;;;;2.00;1.00;;;;;;;;5074696;27;45372;-77
2023/07/05 14:59:36;;;;;;;;;1.00;1.00;;;;;;;;5089706;27;45536;-77
2023/07/05 15:02:02;;;;;;;;;1.00;1.00;;;;;;;;5086844;27;45429;-78
2023/07/05 15:04:28;;;;;;;;;0.00;0.00;;;;;;;;5087158;27;45631;-77
2023/07/05 15:06:53;;;;;;;;;1.00;1.00;;;;;;;;5051366;27;45671;-78
2023/07/05 15:09:21;;;;;;;;;0.00;0.00;;;;;;;;5075689;27;45382;-78
2023/07/05 15:11:46;;;;;;;;;0.25;0.25;;;;;;;;5081835;27;46519;-77
2023/07/05 15:14:12;;;;;;;;;1.50;1.00;;;;;;;;5088718;27;45331;-77
2023/07/05 15:16:37;;;;;;;;;0.00;0.00;;;;;;;;5089554;27;45443;-77
2023/07/05 15:19:02;;;;;;;;;0.50;0.50;;;;;;;;5094776;27;45502;-78
2023/07/05 15:21:27;;;;;;;;;0.00;0.00;;;;;;;;5082635;27;46039;-78
2023/07/05 15:23:53;;;;;;;;;0.00;0.00;;;;;;;;5088046;27;45331;-78
2023/07/05 15:26:19;;;;;;;;;2.50;1.00;;;;;;;;5080112;27;45384;-77
2023/07/05 15:28:45;;;;;;;;;0.00;0.00;;;;;;;;5076843;28;45283;-77
2023/07/05 15:31:10;;;;;;;;;0.00;0.00;;;;;;;;5087318;27;46489;-78
2023/07/05 15:33:35;;;;;;;;;1.00;0.00;;;;;;;;5105900;27;45646;-77
2023/07/05 15:36:00;;;;;;;;;0.50;0.50;;;;;;;;5087380;27;45409;-77
2023/07/05 15:38:26;;;;;;;;;2.25;0.50;;;;;;;;5083059;27;45383;-77
2023/07/05 15:40:51;;;;;;;;;0.25;0.25;;;;;;;;5099279;27;46571;-76
2023/07/05 15:43:16;;;;;;;;;0.25;0.25;;;;;;;;5080446;27;45494;-77
2023/07/05 15:45:45;;;;;;;;;0.00;0.00;;;;;;;;5089507;27;45429;-76
2023/07/05 15:48:10;;;;;;;;;0.00;0.00;;;;;;;;5088418;27;45538;-77
2023/07/05 15:50:36;;;;;;;;;0.50;0.50;;;;;;;;5081288;27;46552;-77
2023/07/05 15:53:01;;;;;;;;;0.00;0.00;;;;;;;;5093112;27;45586;-77
2023/07/05 15:55:27;;;;;;;;;1.00;0.00;;;;;;;;5063336;27;45443;-77
2023/07/05 15:57:52;;;;;;;;;2.00;1.00;;;;;;;;5087499;27;45397;-77
2023/07/05 16:00:25;;;;;;;;;1.00;1.00;;;;;;;;5088920;27;46656;-78
2023/07/05 16:02:57;;;;;;;;;0.00;0.00;;;;;;;;5060539;27;45335;-78
2023/07/05 16:05:23;;;;;;;;;0.00;0.00;;;;;;;;5080834;27;45410;-77
2023/07/05 16:07:48;;;;;;;;;1.00;1.00;;;;;;;;5088505;27;45360;-77
2023/07/05 16:10:16;;;;;;;;;1.50;1.50;;;;;;;;5088819;27;45356;-78
2023/07/05 16:12:41;;;;;;;;;0.00;0.00;;;;;;;;5080912;27;45563;-77
2023/07/05 16:15:06;;;;;;;;;1.00;1.00;;;;;;;;5093791;27;45435;-76
2023/07/05 16:17:31;;;;;;;;;1.25;0.25;;;;;;;;5098554;27;45590;-75
2023/07/05 16:19:57;;;;;;;;;2.50;1.00;;;;;;;;5089221;27;46154;-75
2023/07/05 16:22:22;;;;;;;;;1.75;1.00;;;;;;;;5092930;27;45316;-75
2023/07/05 16:24:47;;;;;;;;;0.50;0.00;;;;;;;;5092745;27;45344;-74
2023/07/05 16:27:15;;;;;;;;;0.25;0.25;;;;;;;;5079519;27;45474;-76
2023/07/05 16:29:40;;;;;;;;;0.00;0.00;;;;;;;;5104605;27;47404;-76
2023/07/05 16:32:06;;;;;;;;;2.75;1.00;;;;;;;;5086749;27;45586;-78
2023/07/05 16:34:31;;;;;;;;;2.00;1.00;;;;;;;;5096194;27;45849;-77
2023/07/05 16:36:56;;;;;;;;;2.00;1.00;;;;;;;;5079077;27;45352;-77
2023/07/05 16:39:21;;;;;;;;;1.00;1.00;;;;;;;;5092277;27;45650;-77
2023/07/05 16:41:48;;;;;;;;;2.00;1.00;;;;;;;;5083983;27;45381;-77
2023/07/05 16:44:15;;;;;;;;;1.50;1.00;;;;;;;;5083809;27;45495;-78
2023/07/05 16:46:41;;;;;;;;;2.00;1.00;;;;;;;;5107543;27;45446;-77
2023/07/05 16:49:06;;;;;;;;;0.50;0.50;;;;;;;;5078979;27;45918;-76
2023/07/05 16:51:32;;;;;;;;;1.00;1.00;;;;;;;;5089400;27;45338;-76
2023/07/05 16:53:57;;;;;;;;;1.00;1.00;;;;;;;;5085587;27;45430;-77
2023/07/05 16:56:23;;;;;;;;;0.75;0.75;;;;;;;;5082037;27;45445;-77
2023/07/05 16:58:49;;;;;;;;;1.00;1.00;;;;;;;;5075644;27;46550;-77
2023/07/05 17:01:14;;;;;;;;;1.00;1.00;;;;;;;;5091922;27;45296;-79